Time;durP1;ratioP1;P1;durP2;ratioP2;P2;SDS_P1;SDS_P2;PMS_P1;PMS_P2;Temp;Humidity;BMP_temperature;BMP_pressure;BME280_temperature;BME280_humidity;BME280_pressure;Samples;Min_cycle;Max_cycle;Signal;HPM_P1;HPM_P2
2024/02/18 00:01:42;;;;;;;14.47;5.67;;;3.60;99.90;;;;;;5058439;28;20196;-90
2024/02/18 00:04:08;;;;;;;9.17;5.23;;;3.60;99.90;;;;;;5059633;28;20233;-90
2024/02/18 00:06:34;;;;;;;10.37;4.90;;;3.60;99.90;;;;;;5046512;28;20181;-91
2024/02/18 00:09:00;;;;;;;13.90;4.83;;;3.50;99.90;;;;;;5046577;28;20269;-90
2024/02/18 00:11:27;;;;;;;7.67;4.87;;;3.60;99.90;;;;;;5074061;28;20272;-91
2024/02/18 00:13:54;;;;;;;6.50;4.23;;;3.50;99.90;;;;;;5075808;28;20185;-91
2024/02/18 00:16:20;;;;;;;11.30;4.93;;;3.50;99.90;;;;;;5049886;28;20181;-91
2024/02/18 00:18:45;;;;;;;12.63;4.67;;;3.50;99.90;;;;;;5044426;28;20673;-91
2024/02/18 00:21:23;;;;;;;8.53;4.47;;;3.50;99.90;;;;;;5054496;28;20585;-91
2024/02/18 00:23:49;;;;;;;10.00;4.50;;;3.50;99.90;;;;;;5075646;28;20367;-90
2024/02/18 00:26:15;;;;;;;7.23;4.83;;;3.50;99.90;;;;;;5056457;28;20699;-91
2024/02/18 00:28:41;;;;;;;11.80;4.40;;;3.50;99.90;;;;;;5049703;28;20550;-91
2024/02/18 00:31:14;;;;;;;7.87;4.37;;;3.60;99.90;;;;;;5082660;28;20189;-90
2024/02/18 00:33:40;;;;;;;8.73;4.80;;;3.60;99.90;;;;;;5052979;28;20654;-90
2024/02/18 00:36:06;;;;;;;11.07;4.57;;;3.70;99.90;;;;;;5049528;28;20193;-91
2024/02/18 00:38:32;;;;;;;15.43;4.73;;;3.70;99.90;;;;;;5067516;28;20177;-91
2024/02/18 00:41:06;;;;;;;10.10;4.63;;;3.70;99.90;;;;;;5065423;28;20230;-91
2024/02/18 00:43:32;;;;;;;8.87;4.00;;;3.60;99.90;;;;;;5048533;28;20299;-90
2024/02/18 00:45:58;;;;;;;12.43;4.50;;;3.40;99.90;;;;;;5054137;28;20213;-90
2024/02/18 00:50:53;;;;;;;7.90;4.43;;;3.40;99.90;;;;;;5078584;28;20265;-90
2024/02/18 00:53:19;;;;;;;9.87;4.53;;;3.40;99.90;;;;;;5086200;28;20221;-89
2024/02/18 00:55:45;;;;;;;9.60;4.93;;;3.50;99.90;;;;;;5068960;28;20203;-90
2024/02/18 00:58:11;;;;;;;7.80;4.80;;;3.60;99.90;;;;;;5076531;28;20195;-89
2024/02/18 01:00:40;;;;;;;7.70;4.70;;;3.60;99.90;;;;;;5065065;28;20187;-90
2024/02/18 01:03:07;;;;;;;8.80;4.63;;;3.60;99.90;;;;;;5061958;28;20192;-90
2024/02/18 01:05:33;;;;;;;7.90;4.83;;;3.50;99.90;;;;;;5068694;28;20212;-90
2024/02/18 01:07:59;;;;;;;9.07;4.97;;;3.40;99.90;;;;;;5076641;28;20181;-89
2024/02/18 01:10:25;;;;;;;10.37;4.87;;;3.50;99.90;;;;;;5076409;28;20215;-89
2024/02/18 01:12:51;;;;;;;10.80;5.30;;;3.50;99.90;;;;;;5089095;28;20180;-90
2024/02/18 01:15:17;;;;;;;9.80;4.57;;;3.50;99.90;;;;;;5064911;28;20272;-89
2024/02/18 01:17:43;;;;;;;9.63;4.33;;;3.50;99.90;;;;;;5054565;28;20182;-90
2024/02/18 01:20:09;;;;;;;9.37;4.53;;;3.40;99.90;;;;;;5070892;28;20216;-90
2024/02/18 01:22:35;;;;;;;9.13;4.30;;;3.30;99.90;;;;;;5073261;28;20187;-90
2024/02/18 01:25:01;;;;;;;5.90;4.13;;;3.20;99.90;;;;;;5084882;28;20212;-88
2024/02/18 01:27:27;;;;;;;8.43;3.93;;;3.20;99.90;;;;;;5076158;28;20184;-90
2024/02/18 01:29:53;;;;;;;11.33;4.23;;;3.20;99.90;;;;;;5076253;28;20236;-90
2024/02/18 01:32:19;;;;;;;7.73;4.23;;;3.20;99.90;;;;;;5072912;28;20561;-91
2024/02/18 01:34:44;;;;;;;9.57;4.57;;;3.20;99.90;;;;;;5065791;28;20629;-90
2024/02/18 01:37:10;;;;;;;13.67;4.80;;;3.20;99.90;;;;;;5054918;28;20204;-90
2024/02/18 01:39:36;;;;;;;10.03;4.60;;;3.10;99.90;;;;;;5064963;28;20634;-91
2024/02/18 01:42:02;;;;;;;12.33;4.63;;;3.20;99.90;;;;;;5057784;28;20165;-90
2024/02/18 01:44:33;;;;;;;9.77;5.17;;;3.10;99.90;;;;;;5071082;28;20781;-90
2024/02/18 01:47:00;;;;;;;10.03;4.90;;;3.20;99.90;;;;;;5071554;28;20180;-90
2024/02/18 01:49:27;;;;;;;14.03;4.50;;;3.20;99.90;;;;;;5072746;28;20289;-89
2024/02/18 01:51:53;;;;;;;9.13;4.57;;;3.20;99.90;;;;;;5064623;28;20183;-90
2024/02/18 01:54:19;;;;;;;7.97;4.63;;;3.20;99.90;;;;;;5071840;28;20248;-90
2024/02/18 01:56:45;;;;;;;8.70;5.50;;;3.20;99.90;;;;;;5070642;28;20180;-90
2024/02/18 01:59:11;;;;;;;9.33;4.43;;;3.20;99.90;;;;;;5072626;28;20181;-89
2024/02/18 02:01:37;;;;;;;8.50;4.40;;;3.20;99.90;;;;;;5055626;28;20285;-89
2024/02/18 02:04:04;;;;;;;7.10;3.97;;;3.20;99.90;;;;;;5047239;28;20205;-89
2024/02/18 02:06:30;;;;;;;10.73;4.20;;;3.20;99.90;;;;;;5076084;28;20191;-89
2024/02/18 02:09:00;;;;;;;11.10;4.23;;;3.10;99.90;;;;;;5076133;28;20185;-89
2024/02/18 02:11:25;;;;;;;10.10;5.03;;;3.00;99.90;;;;;;5054338;28;20188;-89
2024/02/18 02:13:51;;;;;;;11.37;4.70;;;3.00;99.90;;;;;;5077878;28;20180;-88
2024/02/18 02:16:18;;;;;;;11.57;4.87;;;3.10;99.90;;;;;;5071506;28;20188;-89
2024/02/18 02:18:44;;;;;;;10.53;4.97;;;3.10;99.90;;;;;;5079359;28;20177;-88
2024/02/18 02:21:12;;;;;;;11.57;5.37;;;3.10;99.90;;;;;;5075594;28;20278;-89
2024/02/18 02:23:37;;;;;;;13.37;5.17;;;3.00;99.90;;;;;;5060507;28;20690;-89
2024/02/18 02:26:03;;;;;;;8.37;4.83;;;3.00;99.90;;;;;;5055637;28;20292;-88
2024/02/18 02:28:32;;;;;;;8.47;4.40;;;3.00;99.90;;;;;;5078928;28;20229;-89
2024/02/18 02:30:59;;;;;;;9.67;5.50;;;3.00;99.90;;;;;;5079139;28;20188;-89
2024/02/18 02:33:25;;;;;;;9.80;5.20;;;3.10;99.90;;;;;;5069146;28;20203;-88
2024/02/18 02:35:51;;;;;;;10.43;5.27;;;3.10;99.90;;;;;;5065487;28;20615;-89
2024/02/18 02:38:17;;;;;;;11.67;5.50;;;3.20;99.90;;;;;;5063622;28;20206;-89
2024/02/18 02:40:43;;;;;;;7.37;5.03;;;3.30;99.90;;;;;;5079112;28;20199;-89
2024/02/18 02:43:10;;;;;;;10.20;5.20;;;3.30;99.90;;;;;;5070234;28;20181;-89
2024/02/18 02:45:37;;;;;;;7.13;4.90;;;3.20;99.90;;;;;;5070035;28;20214;-89
2024/02/18 02:48:03;;;;;;;11.30;5.23;;;3.10;99.90;;;;;;5089452;28;20169;-89
2024/02/18 02:50:29;;;;;;;10.97;4.93;;;3.10;99.90;;;;;;5079823;28;20256;-88
2024/02/18 02:52:55;;;;;;;9.30;5.20;;;3.00;99.90;;;;;;5051285;28;20210;-88
2024/02/18 02:55:20;;;;;;;11.43;5.20;;;3.00;99.90;;;;;;5057823;28;20178;-89
2024/02/18 02:57:48;;;;;;;8.03;5.27;;;3.00;99.90;;;;;;5055301;28;20231;-88
2024/02/18 03:00:14;;;;;;;12.27;5.73;;;3.10;99.90;;;;;;5054005;28;20669;-89
2024/02/18 03:02:41;;;;;;;8.20;5.67;;;3.10;99.90;;;;;;5057043;28;20178;-88
2024/02/18 03:05:07;;;;;;;15.57;6.23;;;3.10;99.90;;;;;;5053320;28;20236;-89
2024/02/18 03:07:33;;;;;;;11.97;6.00;;;3.10;99.90;;;;;;5043150;28;20178;-89
2024/02/18 03:09:59;;;;;;;11.20;6.17;;;3.00;99.90;;;;;;5055489;28;20173;-89
2024/02/18 03:12:25;;;;;;;13.77;5.77;;;3.00;99.90;;;;;;5058407;28;20181;-89
2024/02/18 03:14:51;;;;;;;11.90;5.77;;;3.10;99.90;;;;;;5041038;28;20173;-89
2024/02/18 03:17:17;;;;;;;11.53;5.80;;;3.10;99.90;;;;;;5058245;28;20192;-87
2024/02/18 03:19:43;;;;;;;10.07;5.83;;;3.10;99.90;;;;;;5058024;28;20174;-86
2024/02/18 03:22:09;;;;;;;13.23;6.20;;;3.10;99.90;;;;;;5048812;28;20275;-87
2024/02/18 03:24:38;;;;;;;9.43;5.63;;;3.10;99.90;;;;;;5048540;28;20205;-89
2024/02/18 03:27:04;;;;;;;11.07;5.27;;;3.00;99.90;;;;;;5058261;28;20185;-89
2024/02/18 03:29:31;;;;;;;11.13;5.73;;;2.90;99.90;;;;;;5051385;28;20177;-88
2024/02/18 03:31:57;;;;;;;10.73;5.60;;;2.90;99.90;;;;;;5045589;28;20252;-90
2024/02/18 03:34:23;;;;;;;9.30;5.20;;;2.90;99.90;;;;;;5041475;28;20182;-89
2024/02/18 03:36:49;;;;;;;7.40;4.70;;;2.90;99.90;;;;;;5052243;28;20619;-90
2024/02/18 03:39:14;;;;;;;5.97;4.20;;;2.90;99.90;;;;;;5075903;28;20608;-89
2024/02/18 03:41:40;;;;;;;9.90;4.67;;;2.90;99.90;;;;;;5075615;28;20187;-90
2024/02/18 03:44:06;;;;;;;9.80;4.80;;;2.90;99.90;;;;;;5044723;28;20529;-90
2024/02/18 03:46:32;;;;;;;6.20;4.10;;;2.90;99.90;;;;;;5029975;28;20181;-90
2024/02/18 03:48:57;;;;;;;15.07;5.20;;;2.90;99.90;;;;;;5053993;28;20239;-89
2024/02/18 03:51:23;;;;;;;9.23;4.20;;;2.90;99.90;;;;;;5075361;28;20259;-89
2024/02/18 03:53:49;;;;;;;8.87;5.00;;;3.00;99.90;;;;;;5063089;28;20270;-89
2024/02/18 03:56:15;;;;;;;8.30;4.70;;;3.00;99.90;;;;;;5069599;28;20275;-90
2024/02/18 03:58:41;;;;;;;10.07;5.10;;;3.00;99.90;;;;;;5060324;28;20182;-90
2024/02/18 04:01:06;;;;;;;12.10;4.77;;;3.00;99.90;;;;;;5070004;28;20188;-91
2024/02/18 04:03:32;;;;;;;11.70;4.37;;;3.00;99.90;;;;;;5054804;28;20177;-90
2024/02/18 04:05:58;;;;;;;5.53;4.23;;;3.10;99.90;;;;;;5053173;28;20301;-89
2024/02/18 04:08:24;;;;;;;9.90;4.90;;;3.10;99.90;;;;;;5071950;28;20216;-90
2024/02/18 04:10:49;;;;;;;17.03;5.50;;;3.10;99.90;;;;;;5065419;28;20178;-89
2024/02/18 04:13:15;;;;;;;11.70;4.30;;;3.10;99.90;;;;;;5073943;28;20185;-90
2024/02/18 04:15:41;;;;;;;7.67;4.50;;;3.20;99.90;;;;;;5059120;28;20187;-90
2024/02/18 04:18:07;;;;;;;7.97;3.93;;;3.10;99.90;;;;;;5073819;28;20185;-89
2024/02/18 04:20:33;;;;;;;9.40;4.37;;;3.00;99.90;;;;;;5073772;28;20191;-90
2024/02/18 04:23:00;;;;;;;9.67;4.23;;;2.90;99.90;;;;;;5074063;28;20193;-89
2024/02/18 04:25:26;;;;;;;7.53;4.20;;;2.90;99.90;;;;;;5060383;28;20545;-90
2024/02/18 04:27:52;;;;;;;6.10;3.87;;;3.00;99.90;;;;;;5074890;28;20177;-90
2024/02/18 04:30:18;;;;;;;8.07;4.87;;;3.10;99.90;;;;;;5072402;28;20226;-89
2024/02/18 04:32:43;;;;;;;7.80;5.03;;;3.10;99.90;;;;;;5073300;28;20177;-90
2024/02/18 04:35:09;;;;;;;8.13;4.00;;;3.00;99.90;;;;;;5061362;28;20186;-89
2024/02/18 04:37:35;;;;;;;10.33;4.50;;;2.90;99.90;;;;;;5064444;28;20181;-90
2024/02/18 04:40:01;;;;;;;9.03;4.13;;;3.00;99.90;;;;;;5071835;28;20633;-90
2024/02/18 04:42:26;;;;;;;11.90;5.03;;;3.00;99.90;;;;;;5073639;28;20300;-89
2024/02/18 04:44:52;;;;;;;6.77;4.40;;;3.00;99.90;;;;;;5063362;28;20713;-89
2024/02/18 04:47:18;;;;;;;11.57;4.50;;;2.90;99.90;;;;;;5064470;28;20180;-89
2024/02/18 04:49:44;;;;;;;8.40;4.53;;;2.90;99.90;;;;;;5074118;28;20244;-89
2024/02/18 04:52:10;;;;;;;7.40;4.33;;;2.90;99.90;;;;;;5056781;28;20236;-89
2024/02/18 04:54:36;;;;;;;6.57;4.43;;;3.00;99.90;;;;;;5042419;28;20181;-90
2024/02/18 04:57:02;;;;;;;8.53;4.37;;;3.00;99.90;;;;;;5048463;28;20177;-89
2024/02/18 04:59:28;;;;;;;8.33;4.63;;;3.10;99.90;;;;;;5055227;28;20192;-90
2024/02/18 05:01:54;;;;;;;7.70;4.20;;;3.10;99.90;;;;;;5074260;28;20177;-89
2024/02/18 05:04:20;;;;;;;6.00;4.07;;;3.00;99.90;;;;;;5045205;28;20212;-89
2024/02/18 05:06:47;;;;;;;7.10;4.57;;;3.00;99.90;;;;;;5048303;28;20218;-90
2024/02/18 05:09:13;;;;;;;10.20;4.67;;;3.00;99.90;;;;;;5056461;28;20658;-89
2024/02/18 05:11:39;;;;;;;10.20;4.93;;;3.00;99.90;;;;;;5056492;28;20219;-89
2024/02/18 05:14:05;;;;;;;11.53;4.73;;;3.00;99.90;;;;;;5064447;28;20181;-90
2024/02/18 05:16:30;;;;;;;8.27;4.40;;;3.00;99.90;;;;;;5039022;28;20185;-90
2024/02/18 05:18:56;;;;;;;6.40;4.37;;;2.90;99.90;;;;;;5074363;28;20170;-90
2024/02/18 05:21:22;;;;;;;6.87;4.70;;;3.00;99.90;;;;;;5055991;28;20184;-90
2024/02/18 05:23:47;;;;;;;8.33;4.30;;;3.00;99.90;;;;;;5056061;28;20177;-90
2024/02/18 05:26:13;;;;;;;9.77;4.63;;;2.90;99.90;;;;;;5040857;28;20251;-90
2024/02/18 05:28:39;;;;;;;9.70;5.03;;;3.00;99.90;;;;;;5056761;28;20296;-88
2024/02/18 05:31:20;;;;;;;10.47;5.97;;;3.00;99.90;;;;;;5049365;28;20573;-89
2024/02/18 05:33:46;;;;;;;8.47;5.00;;;3.10;99.90;;;;;;5049785;28;20173;-90
2024/02/18 05:36:13;;;;;;;11.30;5.37;;;3.10;99.90;;;;;;5041543;28;20181;-90
2024/02/18 05:38:41;;;;;;;9.20;5.50;;;3.10;99.90;;;;;;5074210;28;20615;-89
2024/02/18 05:41:06;;;;;;;11.07;5.33;;;3.10;99.90;;;;;;5048563;28;20198;-89
2024/02/18 05:43:32;;;;;;;7.70;5.40;;;3.20;99.90;;;;;;5056191;28;20216;-90
2024/02/18 05:45:58;;;;;;;7.50;4.73;;;3.30;99.90;;;;;;5040228;28;20209;-88
2024/02/18 05:48:24;;;;;;;8.13;4.43;;;3.20;99.90;;;;;;5058218;28;20635;-89
2024/02/18 05:50:50;;;;;;;10.17;4.40;;;3.10;99.90;;;;;;5079199;28;20231;-88
2024/02/18 05:53:16;;;;;;;8.40;4.87;;;3.20;99.90;;;;;;5089668;28;20179;-90
2024/02/18 05:55:41;;;;;;;9.10;4.83;;;3.20;99.90;;;;;;5071482;28;20611;-90
2024/02/18 05:58:07;;;;;;;12.50;5.47;;;3.10;99.90;;;;;;5068861;28;20188;-90
2024/02/18 06:00:33;;;;;;;7.47;5.23;;;3.10;99.90;;;;;;5079934;28;20179;-90
2024/02/18 06:02:59;;;;;;;7.60;4.50;;;3.10;99.90;;;;;;5072501;28;20181;-89
2024/02/18 06:05:25;;;;;;;7.80;4.50;;;3.10;99.90;;;;;;5064309;28;20216;-89
2024/02/18 06:07:51;;;;;;;12.27;4.60;;;2.90;99.90;;;;;;5072719;28;20181;-90
2024/02/18 06:10:16;;;;;;;9.40;5.50;;;2.90;99.90;;;;;;5063221;28;20185;-89
2024/02/18 06:12:42;;;;;;;5.03;4.37;;;2.90;99.90;;;;;;5065290;28;20177;-90
2024/02/18 06:15:09;;;;;;;11.53;5.50;;;2.90;99.90;;;;;;5066168;28;20627;-89
2024/02/18 06:17:35;;;;;;;7.87;4.70;;;2.90;99.90;;;;;;5071188;28;20181;-89
2024/02/18 06:20:02;;;;;;;10.47;4.70;;;3.00;99.90;;;;;;5069836;28;20180;-90
2024/02/18 06:22:28;;;;;;;8.63;4.80;;;3.00;99.90;;;;;;5081443;28;20242;-90
2024/02/18 06:24:54;;;;;;;11.33;5.10;;;3.00;99.90;;;;;;5068575;28;20571;-89
2024/02/18 06:27:20;;;;;;;8.27;4.90;;;3.00;99.90;;;;;;5087414;28;20176;-90
2024/02/18 06:29:45;;;;;;;7.37;5.23;;;3.10;99.90;;;;;;5079936;28;20176;-89
2024/02/18 06:32:12;;;;;;;9.30;5.80;;;3.10;99.90;;;;;;5070426;28;20558;-90
2024/02/18 06:34:39;;;;;;;8.70;5.40;;;3.20;99.90;;;;;;5092662;28;20270;-89
2024/02/18 06:37:05;;;;;;;9.70;5.50;;;3.20;99.90;;;;;;5090564;28;20310;-90
2024/02/18 06:39:30;;;;;;;11.83;5.90;;;3.20;99.90;;;;;;5079250;28;20283;-90
2024/02/18 06:41:57;;;;;;;9.20;5.97;;;3.20;99.90;;;;;;5065386;28;20180;-90
2024/02/18 06:44:24;;;;;;;12.77;6.13;;;3.20;99.90;;;;;;5057597;28;20307;-89
2024/02/18 06:46:51;;;;;;;8.20;5.27;;;3.30;99.90;;;;;;5057182;28;20281;-89
2024/02/18 06:49:17;;;;;;;10.70;5.90;;;3.30;99.90;;;;;;5076730;28;20227;-89
2024/02/18 06:51:43;;;;;;;7.37;4.87;;;3.20;99.90;;;;;;5078836;28;20193;-90
2024/02/18 06:54:08;;;;;;;8.33;5.10;;;3.10;99.90;;;;;;5087050;28;20184;-89
2024/02/18 06:56:34;;;;;;;8.20;5.30;;;3.10;99.90;;;;;;5070168;28;20241;-90
2024/02/18 06:59:00;;;;;;;6.97;5.27;;;3.10;99.90;;;;;;5078850;28;20189;-90
2024/02/18 07:01:26;;;;;;;11.00;5.47;;;3.10;99.90;;;;;;5074973;28;20263;-90
2024/02/18 07:03:51;;;;;;;16.57;6.33;;;3.10;99.90;;;;;;5063838;28;20181;-89
2024/02/18 07:06:18;;;;;;;10.50;5.80;;;3.20;99.90;;;;;;5074102;28;20226;-90
2024/02/18 07:08:46;;;;;;;9.07;5.93;;;3.30;99.90;;;;;;5079051;28;20176;-88
2024/02/18 07:11:13;;;;;;;7.97;5.93;;;3.40;99.90;;;;;;5085383;28;20196;-89
2024/02/18 07:13:39;;;;;;;9.53;5.60;;;3.40;99.90;;;;;;5060923;28;20189;-89
2024/02/18 07:16:07;;;;;;;10.27;6.57;;;3.50;99.90;;;;;;5059755;28;20188;-89
2024/02/18 07:18:33;;;;;;;12.97;6.83;;;3.40;99.90;;;;;;5069094;28;20188;-89
2024/02/18 07:20:59;;;;;;;10.73;6.90;;;3.50;99.90;;;;;;5065126;28;20188;-88
2024/02/18 07:23:24;;;;;;;13.73;6.93;;;3.60;99.90;;;;;;5059973;28;20330;-89
2024/02/18 07:25:50;;;;;;;11.00;6.20;;;3.60;99.90;;;;;;5057895;28;20205;-91
2024/02/18 07:28:16;;;;;;;8.50;5.50;;;3.70;99.90;;;;;;5065609;28;20554;-90
2024/02/18 07:30:42;;;;;;;11.67;7.13;;;3.70;99.90;;;;;;5058851;28;20185;-89
2024/02/18 07:33:08;;;;;;;14.43;7.80;;;3.80;99.90;;;;;;5080002;28;20502;-90
2024/02/18 07:35:34;;;;;;;14.20;8.27;;;3.90;99.90;;;;;;5088431;28;20188;-89
2024/02/18 07:38:00;;;;;;;15.27;8.57;;;4.00;99.90;;;;;;5046462;28;20189;-90
2024/02/18 07:40:26;;;;;;;14.23;8.73;;;4.00;99.90;;;;;;5063002;28;20189;-89
2024/02/18 07:42:51;;;;;;;11.60;7.60;;;4.10;99.90;;;;;;5060411;28;20181;-90
2024/02/18 07:45:18;;;;;;;16.70;8.33;;;4.20;99.90;;;;;;5049419;28;20216;-89
2024/02/18 07:47:43;;;;;;;10.80;7.97;;;4.30;99.90;;;;;;5078425;28;20177;-89
2024/02/18 07:50:10;;;;;;;14.40;9.50;;;4.30;99.90;;;;;;5052223;28;20232;-89
2024/02/18 07:52:36;;;;;;;17.77;9.83;;;4.40;99.90;;;;;;5062847;28;20566;-90
2024/02/18 07:55:02;;;;;;;18.27;10.57;;;4.40;99.90;;;;;;5062566;28;20231;-89
2024/02/18 07:57:28;;;;;;;17.40;9.60;;;4.50;99.90;;;;;;5069831;28;20180;-90
2024/02/18 07:59:54;;;;;;;21.13;10.30;;;4.60;99.90;;;;;;5072855;28;20177;-90
2024/02/18 08:02:21;;;;;;;21.27;10.50;;;4.70;99.90;;;;;;5063704;28;20185;-91
2024/02/18 08:04:47;;;;;;;21.93;11.07;;;4.80;99.90;;;;;;5079535;28;20448;-91
2024/02/18 08:07:12;;;;;;;18.33;10.67;;;4.90;99.90;;;;;;5072234;28;20632;-91
2024/02/18 08:09:38;;;;;;;20.33;10.83;;;5.00;99.90;;;;;;5065002;28;20223;-91
2024/02/18 08:12:04;;;;;;;15.87;10.67;;;5.00;99.90;;;;;;5078746;28;20180;-89
2024/02/18 08:14:30;;;;;;;15.33;10.47;;;5.10;99.90;;;;;;5058861;28;20192;-91
2024/02/18 08:16:56;;;;;;;18.00;10.63;;;5.20;99.90;;;;;;5062251;28;20177;-90
2024/02/18 08:19:22;;;;;;;20.70;11.80;;;5.20;99.90;;;;;;5053305;28;20320;-87
2024/02/18 08:21:48;;;;;;;18.97;11.33;;;5.30;99.90;;;;;;5088385;28;20195;-92
2024/02/18 08:24:14;;;;;;;19.00;11.80;;;5.30;99.90;;;;;;5064041;28;20619;-93
2024/02/18 08:26:40;;;;;;;23.57;11.40;;;5.40;99.90;;;;;;5076253;28;20699;-91
2024/02/18 08:29:10;;;;;;;21.87;12.27;;;5.50;99.90;;;;;;5076927;28;20322;-92
2024/02/18 08:31:36;;;;;;;20.43;11.03;;;5.60;99.90;;;;;;5052801;28;20537;-92
2024/02/18 08:34:03;;;;;;;20.83;12.70;;;5.60;99.90;;;;;;5061467;28;20189;-90
2024/02/18 08:36:29;;;;;;;21.47;11.43;;;5.70;99.90;;;;;;5055012;28;20278;-90
2024/02/18 08:38:55;;;;;;;23.17;11.70;;;5.90;99.90;;;;;;5059138;28;20211;-91
2024/02/18 08:41:21;;;;;;;17.10;10.53;;;6.00;99.90;;;;;;5058768;28;20189;-90
2024/02/18 08:43:52;;;;;;;17.10;10.80;;;6.00;99.90;;;;;;5066082;28;20209;-90
2024/02/18 08:46:18;;;;;;;17.37;10.90;;;6.10;99.90;;;;;;5068286;28;20251;-92
2024/02/18 08:48:44;;;;;;;19.33;11.23;;;6.20;99.90;;;;;;5067889;28;20623;-89
2024/02/18 08:51:10;;;;;;;19.10;11.70;;;6.30;99.90;;;;;;5038462;28;20197;-92
2024/02/18 08:53:38;;;;;;;17.10;10.93;;;6.40;99.90;;;;;;5062549;28;20244;-93
2024/02/18 08:56:08;;;;;;;14.47;10.00;;;6.40;99.90;;;;;;5035034;28;20182;-92
2024/02/18 08:58:35;;;;;;;18.80;10.63;;;6.50;99.90;;;;;;5065699;28;20205;-91
2024/02/18 09:01:01;;;;;;;16.23;10.70;;;6.60;99.90;;;;;;5041248;28;20212;-91
2024/02/18 09:03:27;;;;;;;15.77;10.67;;;6.70;99.90;;;;;;5044582;28;20225;-91
2024/02/18 09:05:53;;;;;;;17.80;10.93;;;6.70;99.90;;;;;;5036105;28;20225;-91
2024/02/18 09:08:22;;;;;;;19.37;11.37;;;6.80;99.90;;;;;;5030289;28;20181;-93
2024/02/18 09:10:54;;;;;;;17.70;11.60;;;6.90;99.90;;;;;;5036035;28;20193;-93
2024/02/18 09:13:22;;;;;;;17.10;10.50;;;7.00;99.90;;;;;;5065088;28;20423;-91
2024/02/18 09:15:49;;;;;;;18.97;10.30;;;7.00;99.90;;;;;;5043225;28;20182;-92
2024/02/18 09:18:15;;;;;;;17.63;10.10;;;7.10;99.90;;;;;;5031856;28;20186;-91
2024/02/18 09:20:41;;;;;;;16.90;10.70;;;7.20;99.90;;;;;;5074420;28;20189;-92
2024/02/18 09:23:07;;;;;;;17.73;10.23;;;7.20;99.90;;;;;;5047845;28;20494;-92
2024/02/18 09:25:32;;;;;;;16.03;10.63;;;7.30;99.90;;;;;;5046572;28;20232;-92
2024/02/18 09:27:59;;;;;;;16.10;10.23;;;7.30;99.90;;;;;;5040225;28;20173;-91
2024/02/18 09:30:25;;;;;;;16.57;10.50;;;7.40;99.90;;;;;;5037385;28;20492;-92
2024/02/18 09:32:51;;;;;;;14.83;10.70;;;7.50;99.90;;;;;;5048831;28;20185;-92
2024/02/18 09:35:17;;;;;;;16.17;10.50;;;7.50;99.90;;;;;;5035976;28;20204;-92
2024/02/18 09:37:43;;;;;;;15.48;10.32;;;7.60;99.90;;;;;;5042203;28;20548;-92
2024/02/18 09:40:09;;;;;;;15.38;9.80;;;7.70;99.90;;;;;;5056976;28;20196;-92
2024/02/18 09:42:42;;;;;;;16.53;9.97;;;7.70;99.90;;;;;;5045870;28;20228;-92
2024/02/18 09:45:11;;;;;;;15.97;10.63;;;7.90;99.90;;;;;;5036505;28;20319;-91
2024/02/18 09:47:42;;;;;;;15.85;9.70;;;7.90;99.90;;;;;;5039932;28;20250;-92
2024/02/18 09:50:09;;;;;;;15.87;9.60;;;8.00;99.90;;;;;;5049761;28;20296;-89
2024/02/18 09:52:40;;;;;;;14.05;9.90;;;8.00;99.90;;;;;;5056985;28;20218;-91
2024/02/18 09:55:08;;;;;;;14.97;9.57;;;8.10;99.90;;;;;;5063970;28;20181;-92
2024/02/18 09:57:34;;;;;;;13.60;9.17;;;8.20;99.90;;;;;;5086488;28;20486;-91
2024/02/18 09:59:59;;;;;;;15.25;9.60;;;8.30;99.90;;;;;;5079664;28;20195;-89
2024/02/18 10:02:27;;;;;;;15.68;9.07;;;8.40;99.90;;;;;;5091901;28;20180;-91
2024/02/18 10:04:53;;;;;;;15.80;9.43;;;8.50;99.90;;;;;;5053278;28;20233;-92
2024/02/18 10:07:27;;;;;;;14.90;8.93;;;8.60;99.90;;;;;;5062027;28;20192;-91
2024/02/18 10:09:53;;;;;;;12.73;9.07;;;8.80;99.90;;;;;;5077924;28;20205;-92
2024/02/18 10:12:20;;;;;;;13.20;8.40;;;8.90;99.90;;;;;;5061179;28;20676;-91
2024/02/18 10:15:00;;;;;;;12.18;8.98;;;9.00;99.90;;;;;;5070001;28;20247;-92
2024/02/18 10:17:31;;;;;;;13.40;8.50;;;9.10;99.90;;;;;;5060475;28;20177;-92
2024/02/18 10:19:57;;;;;;;13.52;8.65;;;9.20;99.90;;;;;;5068710;28;20184;-92
2024/02/18 10:22:25;;;;;;;11.43;7.97;;;9.20;99.90;;;;;;5076755;28;20704;-92
2024/02/18 10:24:52;;;;;;;14.93;8.77;;;9.30;99.90;;;;;;5069184;28;20208;-92
2024/02/18 10:27:20;;;;;;;10.82;8.38;;;9.40;99.90;;;;;;5074561;28;20216;-92
2024/02/18 10:29:50;;;;;;;11.98;8.45;;;9.40;99.90;;;;;;5061244;28;20280;-92
2024/02/18 10:32:17;;;;;;;12.90;8.05;;;9.60;99.90;;;;;;5085806;28;20181;-92
2024/02/18 10:34:44;;;;;;;12.10;7.90;;;9.70;99.90;;;;;;5070779;28;20234;-91
2024/02/18 10:37:26;;;;;;;14.27;8.00;;;9.80;99.90;;;;;;5060711;28;20181;-91
2024/02/18 10:39:55;;;;;;;11.77;7.72;;;9.80;99.90;;;;;;5064258;28;20207;-93
2024/02/18 10:42:23;;;;;;;12.23;7.80;;;10.00;99.90;;;;;;5087642;28;20184;-90
2024/02/18 10:44:52;;;;;;;10.00;7.25;;;10.00;99.90;;;;;;5057245;28;20206;-90
2024/02/18 10:47:22;;;;;;;13.13;5.97;;;10.20;99.90;;;;;;5093688;28;20180;-89
2024/02/18 10:50:01;;;;;;;10.07;5.40;;;10.20;99.90;;;;;;5079422;28;20286;-91
2024/02/18 10:52:33;;;;;;;9.43;5.63;;;10.30;99.90;;;;;;5079840;28;20177;-92
2024/02/18 10:55:03;;;;;;;9.00;5.18;;;10.40;99.90;;;;;;5097627;28;20200;-90
2024/02/18 10:57:37;;;;;;;7.03;5.22;;;10.50;99.90;;;;;;5060546;28;20181;-92
2024/02/18 11:00:10;;;;;;;8.02;5.10;;;10.60;99.90;;;;;;5069889;28;20185;-91
2024/02/18 11:02:56;;;;;;;9.57;5.97;;;10.70;99.90;;;;;;5075220;28;20180;-92
2024/02/18 11:05:24;;;;;;;10.27;5.28;;;10.80;99.90;;;;;;5068385;28;20209;-92
2024/02/18 11:07:52;;;;;;;7.38;4.28;;;10.90;99.90;;;;;;5075308;28;20184;-92
2024/02/18 11:10:20;;;;;;;7.85;4.50;;;11.00;99.90;;;;;;5061706;28;20284;-93
2024/02/18 11:12:47;;;;;;;7.03;4.43;;;11.10;99.90;;;;;;5091574;28;20176;-92
2024/02/18 11:15:12;;;;;;;6.95;4.25;;;11.20;99.90;;;;;;5060205;28;20185;-91
2024/02/18 11:17:41;;;;;;;8.13;4.25;;;11.30;99.90;;;;;;5083196;28;20269;-91
2024/02/18 11:20:09;;;;;;;6.50;4.38;;;11.40;99.90;;;;;;5079077;28;20192;-92
2024/02/18 11:22:36;;;;;;;6.55;3.95;;;11.50;99.90;;;;;;5079744;28;20620;-92
2024/02/18 11:25:05;;;;;;;8.40;4.10;;;11.50;99.90;;;;;;5092714;28;20216;-91
2024/02/18 11:27:35;;;;;;;5.78;4.00;;;11.60;99.90;;;;;;5076931;28;20181;-92
2024/02/18 11:30:02;;;;;;;7.72;4.43;;;11.70;99.90;;;;;;5069534;28;20216;-90
2024/02/18 11:32:28;;;;;;;7.28;4.03;;;11.70;99.90;;;;;;5096809;28;20233;-92
2024/02/18 11:34:55;;;;;;;5.32;3.63;;;11.80;99.90;;;;;;5090057;28;20744;-92
2024/02/18 11:37:34;;;;;;;9.88;3.90;;;11.80;99.90;;;;;;5068027;28;20512;-92
2024/02/18 11:40:23;;;;;;;4.68;3.60;;;11.90;99.90;;;;;;5075629;28;20515;-91
2024/02/18 11:42:49;;;;;;;6.70;3.97;;;11.90;99.90;;;;;;5081246;28;20174;-92
2024/02/18 11:45:20;;;;;;;8.57;3.90;;;11.80;99.90;;;;;;5068702;28;20216;-93
2024/02/18 11:48:02;;;;;;;6.15;4.28;;;11.80;99.90;;;;;;5051991;28;20231;-93
2024/02/18 11:50:28;;;;;;;8.63;4.18;;;11.90;99.90;;;;;;5041132;28;20298;-92
2024/02/18 11:52:54;;;;;;;7.25;3.90;;;11.90;99.90;;;;;;5055161;28;20182;-91
2024/02/18 11:55:22;;;;;;;6.60;4.53;;;11.80;99.90;;;;;;5056111;28;20212;-92
2024/02/18 11:58:00;;;;;;;6.70;3.95;;;11.70;99.90;;;;;;5056516;28;20667;-92
2024/02/18 12:00:26;;;;;;;10.65;4.20;;;11.60;99.90;;;;;;5046967;28;20190;-92
2024/02/18 12:02:54;;;;;;;4.50;3.67;;;11.60;99.90;;;;;;5063594;28;20189;-90
2024/02/18 12:05:23;;;;;;;6.07;3.42;;;11.60;99.90;;;;;;5047149;28;20283;-91
2024/02/18 12:07:52;;;;;;;6.05;3.95;;;11.70;99.90;;;;;;5049280;28;20178;-92
2024/02/18 12:10:18;;;;;;;6.15;3.67;;;11.70;99.90;;;;;;5047791;28;20197;-92
2024/02/18 12:12:44;;;;;;;7.97;4.20;;;11.70;99.90;;;;;;5059815;28;20691;-92
2024/02/18 12:15:22;;;;;;;6.53;3.92;;;11.70;99.90;;;;;;5059786;28;20284;-92
2024/02/18 12:17:49;;;;;;;7.35;3.83;;;11.60;99.90;;;;;;5058062;28;20687;-92
2024/02/18 12:20:19;;;;;;;6.18;3.58;;;11.60;99.90;;;;;;5046926;28;20182;-92
2024/02/18 12:22:46;;;;;;;5.68;3.80;;;11.60;99.90;;;;;;5048868;28;20272;-91
2024/02/18 12:25:14;;;;;;;5.18;3.58;;;11.50;99.90;;;;;;5045944;28;20215;-90
2024/02/18 12:27:40;;;;;;;7.07;4.05;;;11.50;99.90;;;;;;5056000;28;20257;-92
2024/02/18 12:30:14;;;;;;;5.07;3.92;;;11.40;99.90;;;;;;5045968;28;20560;-92
2024/02/18 12:32:40;;;;;;;6.72;3.83;;;11.50;99.90;;;;;;5044263;28;20231;-91
2024/02/18 12:35:06;;;;;;;6.85;3.92;;;11.60;99.90;;;;;;5042846;28;20217;-90
2024/02/18 12:37:32;;;;;;;8.52;4.20;;;11.50;99.90;;;;;;5063800;28;20512;-92
2024/02/18 12:40:00;;;;;;;5.70;4.05;;;11.50;99.90;;;;;;5047591;28;20272;-90
2024/02/18 12:42:26;;;;;;;6.50;3.80;;;11.50;99.90;;;;;;5042200;28;20526;-89
2024/02/18 12:44:52;;;;;;;4.97;3.60;;;11.50;99.90;;;;;;5052423;28;20202;-88
2024/02/18 12:47:17;;;;;;;5.82;3.90;;;11.50;99.90;;;;;;5061653;28;20242;-91
2024/02/18 12:49:44;;;;;;;6.05;4.00;;;11.50;99.90;;;;;;5054089;28;20805;-91